sensor_id;sensor_type;location;lat;lon;timestamp;temperature;humidity
38592;DHT22;24356;48.460;11.450;2022-11-20T00:00:25;4.90;93.80
38592;DHT22;24356;48.460;11.450;2022-11-20T00:02:51;4.90;93.70
38592;DHT22;24356;48.460;11.450;2022-11-20T00:05:17;4.90;93.70
38592;DHT22;24356;48.460;11.450;2022-11-20T00:07:43;4.90;93.70
38592;DHT22;24356;48.460;11.450;2022-11-20T00:10:09;4.90;93.70
38592;DHT22;24356;48.460;11.450;2022-11-20T00:12:35;4.90;93.70
38592;DHT22;24356;48.460;11.450;2022-11-20T00:15:00;4.90;93.70
38592;DHT22;24356;48.460;11.450;2022-11-20T00:17:26;4.90;93.80
38592;DHT22;24356;48.460;11.450;2022-11-20T00:19:52;4.90;93.70
38592;DHT22;24356;48.460;11.450;2022-11-20T00:22:17;4.90;93.70
38592;DHT22;24356;48.460;11.450;2022-11-20T00:24:43;4.90;93.80
38592;DHT22;24356;48.460;11.450;2022-11-20T00:27:08;4.90;93.60
38592;DHT22;24356;48.460;11.450;2022-11-20T00:29:34;4.90;93.60
38592;DHT22;24356;48.460;11.450;2022-11-20T00:32:00;4.90;93.60
38592;DHT22;24356;48.460;11.450;2022-11-20T00:34:25;4.90;93.60
38592;DHT22;24356;48.460;11.450;2022-11-20T00:36:52;4.90;93.60
38592;DHT22;24356;48.460;11.450;2022-11-20T00:39:19;4.90;93.60
38592;DHT22;24356;48.460;11.450;2022-11-20T00:41:44;4.90;93.60
38592;DHT22;24356;48.460;11.450;2022-11-20T00:44:10;4.90;93.60
38592;DHT22;24356;48.460;11.450;2022-11-20T00:46:36;4.90;93.60
38592;DHT22;24356;48.460;11.450;2022-11-20T00:49:01;4.90;93.60
38592;DHT22;24356;48.460;11.450;2022-11-20T00:51:28;4.90;93.70
38592;DHT22;24356;48.460;11.450;2022-11-20T00:53:57;4.90;93.70
38592;DHT22;24356;48.460;11.450;2022-11-20T00:56:23;5.00;93.70
38592;DHT22;24356;48.460;11.450;2022-11-20T00:58:49;5.00;93.60
38592;DHT22;24356;48.460;11.450;2022-11-20T01:01:19;4.90;93.50
38592;DHT22;24356;48.460;11.450;2022-11-20T01:03:48;5.00;93.70
38592;DHT22;24356;48.460;11.450;2022-11-20T01:06:17;5.00;93.60
38592;DHT22;24356;48.460;11.450;2022-11-20T01:08:43;5.00;93.60
38592;DHT22;24356;48.460;11.450;2022-11-20T01:11:11;5.00;93.60
38592;DHT22;24356;48.460;11.450;2022-11-20T01:13:37;5.00;93.60
38592;DHT22;24356;48.460;11.450;2022-11-20T01:16:08;5.00;93.60
38592;DHT22;24356;48.460;11.450;2022-11-20T01:18:36;5.00;93.60
38592;DHT22;24356;48.460;11.450;2022-11-20T01:21:08;4.90;93.60
38592;DHT22;24356;48.460;11.450;2022-11-20T01:23:37;4.90;93.60
38592;DHT22;24356;48.460;11.450;2022-11-20T01:26:04;4.90;93.60
38592;DHT22;24356;48.460;11.450;2022-11-20T01:28:31;4.90;93.60
38592;DHT22;24356;48.460;11.450;2022-11-20T01:33:26;4.90;93.60
38592;DHT22;24356;48.460;11.450;2022-11-20T01:35:53;4.90;93.50
38592;DHT22;24356;48.460;11.450;2022-11-20T01:38:19;4.90;93.50
38592;DHT22;24356;48.460;11.450;2022-11-20T01:40:53;4.90;93.50
38592;DHT22;24356;48.460;11.450;2022-11-20T01:43:19;4.90;93.50
38592;DHT22;24356;48.460;11.450;2022-11-20T01:46:04;4.90;93.50
38592;DHT22;24356;48.460;11.450;2022-11-20T01:48:37;4.90;93.50
38592;DHT22;24356;48.460;11.450;2022-11-20T01:51:05;4.90;93.50
38592;DHT22;24356;48.460;11.450;2022-11-20T01:53:34;4.90;93.50
38592;DHT22;24356;48.460;11.450;2022-11-20T01:56:03;4.90;93.60
38592;DHT22;24356;48.460;11.450;2022-11-20T01:58:34;4.90;93.50
38592;DHT22;24356;48.460;11.450;2022-11-20T02:01:00;4.90;93.50
38592;DHT22;24356;48.460;11.450;2022-11-20T02:03:26;4.90;93.50
38592;DHT22;24356;48.460;11.450;2022-11-20T02:06:12;4.90;93.60
38592;DHT22;24356;48.460;11.450;2022-11-20T02:08:40;4.90;93.50
38592;DHT22;24356;48.460;11.450;2022-11-20T02:11:06;4.90;93.50
38592;DHT22;24356;48.460;11.450;2022-11-20T02:13:32;4.90;93.50
38592;DHT22;24356;48.460;11.450;2022-11-20T02:16:14;4.90;93.40
38592;DHT22;24356;48.460;11.450;2022-11-20T02:18:41;4.90;93.50
38592;DHT22;24356;48.460;11.450;2022-11-20T02:23:39;4.90;93.60
38592;DHT22;24356;48.460;11.450;2022-11-20T02:26:09;4.90;93.70
38592;DHT22;24356;48.460;11.450;2022-11-20T02:28:37;4.90;93.70
38592;DHT22;24356;48.460;11.450;2022-11-20T02:31:03;4.90;93.60
38592;DHT22;24356;48.460;11.450;2022-11-20T02:33:28;4.90;93.60
38592;DHT22;24356;48.460;11.450;2022-11-20T02:35:54;4.90;93.60
38592;DHT22;24356;48.460;11.450;2022-11-20T02:38:20;4.80;93.60
38592;DHT22;24356;48.460;11.450;2022-11-20T02:40:45;4.80;93.60
38592;DHT22;24356;48.460;11.450;2022-11-20T02:43:11;4.80;93.60
38592;DHT22;24356;48.460;11.450;2022-11-20T02:45:38;4.80;93.50
38592;DHT22;24356;48.460;11.450;2022-11-20T02:48:05;4.80;93.60
38592;DHT22;24356;48.460;11.450;2022-11-20T02:50:30;4.80;93.50
38592;DHT22;24356;48.460;11.450;2022-11-20T02:52:56;4.80;93.60
38592;DHT22;24356;48.460;11.450;2022-11-20T02:55:22;4.80;93.60
38592;DHT22;24356;48.460;11.450;2022-11-20T02:57:47;4.80;93.50
38592;DHT22;24356;48.460;11.450;2022-11-20T03:00:13;4.80;93.50
38592;DHT22;24356;48.460;11.450;2022-11-20T03:02:39;4.80;93.60
38592;DHT22;24356;48.460;11.450;2022-11-20T03:05:05;4.80;93.70
38592;DHT22;24356;48.460;11.450;2022-11-20T03:07:31;4.80;93.70
38592;DHT22;24356;48.460;11.450;2022-11-20T03:09:56;4.80;93.60
38592;DHT22;24356;48.460;11.450;2022-11-20T03:12:22;4.80;93.60
38592;DHT22;24356;48.460;11.450;2022-11-20T03:14:47;4.80;93.60
38592;DHT22;24356;48.460;11.450;2022-11-20T03:17:13;4.80;93.70
38592;DHT22;24356;48.460;11.450;2022-11-20T03:19:38;4.80;93.60
38592;DHT22;24356;48.460;11.450;2022-11-20T03:22:04;4.80;93.50
38592;DHT22;24356;48.460;11.450;2022-11-20T03:24:29;4.80;93.60
38592;DHT22;24356;48.460;11.450;2022-11-20T03:26:55;4.80;93.60
38592;DHT22;24356;48.460;11.450;2022-11-20T03:29:21;4.80;93.50
38592;DHT22;24356;48.460;11.450;2022-11-20T03:31:46;4.80;93.50
38592;DHT22;24356;48.460;11.450;2022-11-20T03:34:12;4.80;93.50
38592;DHT22;24356;48.460;11.450;2022-11-20T03:36:42;4.80;93.50
38592;DHT22;24356;48.460;11.450;2022-11-20T03:39:08;4.70;93.60
38592;DHT22;24356;48.460;11.450;2022-11-20T03:41:38;4.70;93.50
38592;DHT22;24356;48.460;11.450;2022-11-20T03:44:06;4.70;93.50
38592;DHT22;24356;48.460;11.450;2022-11-20T03:46:32;4.70;93.60
38592;DHT22;24356;48.460;11.450;2022-11-20T03:48:58;4.70;93.50
38592;DHT22;24356;48.460;11.450;2022-11-20T03:51:25;4.70;93.50
38592;DHT22;24356;48.460;11.450;2022-11-20T03:53:53;4.70;93.50
38592;DHT22;24356;48.460;11.450;2022-11-20T03:56:23;4.70;93.50
38592;DHT22;24356;48.460;11.450;2022-11-20T03:58:49;4.80;93.50
38592;DHT22;24356;48.460;11.450;2022-11-20T04:01:17;4.70;93.50
38592;DHT22;24356;48.460;11.450;2022-11-20T04:03:43;4.70;93.40
38592;DHT22;24356;48.460;11.450;2022-11-20T04:06:18;4.70;93.50
38592;DHT22;24356;48.460;11.450;2022-11-20T04:08:44;4.70;93.50
38592;DHT22;24356;48.460;11.450;2022-11-20T04:11:14;4.70;93.50
38592;DHT22;24356;48.460;11.450;2022-11-20T04:13:41;4.70;93.40
38592;DHT22;24356;48.460;11.450;2022-11-20T04:16:08;4.70;93.40
38592;DHT22;24356;48.460;11.450;2022-11-20T04:18:35;4.70;93.50
38592;DHT22;24356;48.460;11.450;2022-11-20T04:21:02;4.70;93.30
38592;DHT22;24356;48.460;11.450;2022-11-20T04:23:28;4.70;93.50
38592;DHT22;24356;48.460;11.450;2022-11-20T04:25:53;4.70;93.50
38592;DHT22;24356;48.460;11.450;2022-11-20T04:28:20;4.60;93.40
38592;DHT22;24356;48.460;11.450;2022-11-20T04:30:45;4.60;93.30
38592;DHT22;24356;48.460;11.450;2022-11-20T04:33:11;4.60;93.40
38592;DHT22;24356;48.460;11.450;2022-11-20T04:35:38;4.60;93.40
38592;DHT22;24356;48.460;11.450;2022-11-20T04:38:04;4.60;93.40
38592;DHT22;24356;48.460;11.450;2022-11-20T04:40:30;4.60;93.40
38592;DHT22;24356;48.460;11.450;2022-11-20T04:42:56;4.60;93.40
38592;DHT22;24356;48.460;11.450;2022-11-20T04:45:22;4.60;93.40
38592;DHT22;24356;48.460;11.450;2022-11-20T04:47:48;4.60;93.40
38592;DHT22;24356;48.460;11.450;2022-11-20T04:50:14;4.60;93.40
38592;DHT22;24356;48.460;11.450;2022-11-20T04:52:40;4.60;93.40
38592;DHT22;24356;48.460;11.450;2022-11-20T04:55:06;4.60;93.30
38592;DHT22;24356;48.460;11.450;2022-11-20T04:57:31;4.60;93.30
38592;DHT22;24356;48.460;11.450;2022-11-20T04:59:57;4.60;93.40
38592;DHT22;24356;48.460;11.450;2022-11-20T05:02:23;4.60;93.30
38592;DHT22;24356;48.460;11.450;2022-11-20T05:04:48;4.60;93.30
38592;DHT22;24356;48.460;11.450;2022-11-20T05:07:14;4.60;93.30
38592;DHT22;24356;48.460;11.450;2022-11-20T05:09:40;4.50;93.30
38592;DHT22;24356;48.460;11.450;2022-11-20T05:12:07;4.50;93.30
38592;DHT22;24356;48.460;11.450;2022-11-20T05:14:33;4.50;93.30
38592;DHT22;24356;48.460;11.450;2022-11-20T05:16:59;4.50;93.30
38592;DHT22;24356;48.460;11.450;2022-11-20T05:19:24;4.50;93.30
38592;DHT22;24356;48.460;11.450;2022-11-20T05:21:50;4.50;93.30
38592;DHT22;24356;48.460;11.450;2022-11-20T05:24:15;4.50;93.30
38592;DHT22;24356;48.460;11.450;2022-11-20T05:26:41;4.50;93.30
38592;DHT22;24356;48.460;11.450;2022-11-20T05:29:09;4.50;93.30
38592;DHT22;24356;48.460;11.450;2022-11-20T05:31:35;4.50;93.20
38592;DHT22;24356;48.460;11.450;2022-11-20T05:34:02;4.50;93.30
38592;DHT22;24356;48.460;11.450;2022-11-20T05:36:28;4.40;93.20
38592;DHT22;24356;48.460;11.450;2022-11-20T05:38:55;4.40;93.30
38592;DHT22;24356;48.460;11.450;2022-11-20T05:41:21;4.40;93.30
38592;DHT22;24356;48.460;11.450;2022-11-20T05:43:48;4.40;93.30
38592;DHT22;24356;48.460;11.450;2022-11-20T05:46:15;4.40;93.30
38592;DHT22;24356;48.460;11.450;2022-11-20T05:48:42;4.40;93.20
38592;DHT22;24356;48.460;11.450;2022-11-20T05:51:10;4.40;93.20
38592;DHT22;24356;48.460;11.450;2022-11-20T05:53:37;4.40;93.20
38592;DHT22;24356;48.460;11.450;2022-11-20T05:56:14;4.30;93.20
38592;DHT22;24356;48.460;11.450;2022-11-20T05:58:40;4.30;93.20
38592;DHT22;24356;48.460;11.450;2022-11-20T06:01:20;4.20;93.20
38592;DHT22;24356;48.460;11.450;2022-11-20T06:03:46;4.20;93.30
38592;DHT22;24356;48.460;11.450;2022-11-20T06:06:14;4.20;93.30
38592;DHT22;24356;48.460;11.450;2022-11-20T06:08:40;4.10;93.30
38592;DHT22;24356;48.460;11.450;2022-11-20T06:11:07;4.10;93.40
38592;DHT22;24356;48.460;11.450;2022-11-20T06:13:33;4.10;93.30
38592;DHT22;24356;48.460;11.450;2022-11-20T06:15:59;4.10;93.30
38592;DHT22;24356;48.460;11.450;2022-11-20T06:18:26;4.10;93.40
38592;DHT22;24356;48.460;11.450;2022-11-20T06:21:00;4.00;93.30
38592;DHT22;24356;48.460;11.450;2022-11-20T06:23:28;4.00;93.40
38592;DHT22;24356;48.460;11.450;2022-11-20T06:25:54;4.00;93.40
38592;DHT22;24356;48.460;11.450;2022-11-20T06:28:19;4.00;93.40
38592;DHT22;24356;48.460;11.450;2022-11-20T06:30:45;4.00;93.30
38592;DHT22;24356;48.460;11.450;2022-11-20T06:33:11;4.00;93.40
38592;DHT22;24356;48.460;11.450;2022-11-20T06:35:37;4.00;93.40
38592;DHT22;24356;48.460;11.450;2022-11-20T06:38:03;4.00;93.30
38592;DHT22;24356;48.460;11.450;2022-11-20T06:40:28;4.00;93.40
38592;DHT22;24356;48.460;11.450;2022-11-20T06:42:54;3.90;93.40
38592;DHT22;24356;48.460;11.450;2022-11-20T06:45:21;3.90;93.30
38592;DHT22;24356;48.460;11.450;2022-11-20T06:47:46;3.90;93.30
38592;DHT22;24356;48.460;11.450;2022-11-20T06:50:12;3.90;93.40
38592;DHT22;24356;48.460;11.450;2022-11-20T06:52:38;3.90;93.40
38592;DHT22;24356;48.460;11.450;2022-11-20T06:55:04;3.90;93.40
38592;DHT22;24356;48.460;11.450;2022-11-20T06:57:30;3.90;93.40
38592;DHT22;24356;48.460;11.450;2022-11-20T06:59:55;4.00;93.40
38592;DHT22;24356;48.460;11.450;2022-11-20T07:02:21;3.90;93.40
38592;DHT22;24356;48.460;11.450;2022-11-20T07:04:46;4.00;93.30
38592;DHT22;24356;48.460;11.450;2022-11-20T07:07:12;4.00;93.40
38592;DHT22;24356;48.460;11.450;2022-11-20T07:09:37;4.00;93.30
38592;DHT22;24356;48.460;11.450;2022-11-20T07:12:03;4.00;93.30
38592;DHT22;24356;48.460;11.450;2022-11-20T07:14:29;4.00;93.30
38592;DHT22;24356;48.460;11.450;2022-11-20T07:16:55;4.00;93.20
38592;DHT22;24356;48.460;11.450;2022-11-20T07:19:20;4.00;93.30
38592;DHT22;24356;48.460;11.450;2022-11-20T07:21:46;4.10;93.30
38592;DHT22;24356;48.460;11.450;2022-11-20T07:24:11;4.10;93.10
38592;DHT22;24356;48.460;11.450;2022-11-20T07:26:37;4.10;93.20
38592;DHT22;24356;48.460;11.450;2022-11-20T07:29:03;4.10;93.10
38592;DHT22;24356;48.460;11.450;2022-11-20T07:31:28;4.10;93.10
38592;DHT22;24356;48.460;11.450;2022-11-20T07:33:54;4.10;93.10
38592;DHT22;24356;48.460;11.450;2022-11-20T07:36:20;4.20;93.10
38592;DHT22;24356;48.460;11.450;2022-11-20T07:38:45;4.20;93.00
38592;DHT22;24356;48.460;11.450;2022-11-20T07:41:12;4.20;93.10
38592;DHT22;24356;48.460;11.450;2022-11-20T07:43:38;4.20;93.10
38592;DHT22;24356;48.460;11.450;2022-11-20T07:46:03;4.20;93.10
38592;DHT22;24356;48.460;11.450;2022-11-20T07:48:29;4.30;93.00
38592;DHT22;24356;48.460;11.450;2022-11-20T07:50:56;4.30;93.20
38592;DHT22;24356;48.460;11.450;2022-11-20T07:53:22;4.40;93.00
38592;DHT22;24356;48.460;11.450;2022-11-20T07:55:48;4.50;92.90
38592;DHT22;24356;48.460;11.450;2022-11-20T07:58:14;4.50;92.90
38592;DHT22;24356;48.460;11.450;2022-11-20T08:00:40;4.60;92.80
38592;DHT22;24356;48.460;11.450;2022-11-20T08:03:06;4.70;92.60
38592;DHT22;24356;48.460;11.450;2022-11-20T08:05:32;4.80;92.80
38592;DHT22;24356;48.460;11.450;2022-11-20T08:07:58;4.90;92.50
38592;DHT22;24356;48.460;11.450;2022-11-20T08:10:23;5.00;92.20
38592;DHT22;24356;48.460;11.450;2022-11-20T08:12:51;5.00;92.20
38592;DHT22;24356;48.460;11.450;2022-11-20T08:15:52;5.10;92.20
38592;DHT22;24356;48.460;11.450;2022-11-20T08:18:18;5.10;92.00
38592;DHT22;24356;48.460;11.450;2022-11-20T08:20:43;5.20;91.90
38592;DHT22;24356;48.460;11.450;2022-11-20T08:23:09;5.20;91.90
38592;DHT22;24356;48.460;11.450;2022-11-20T08:25:36;5.20;91.60
38592;DHT22;24356;48.460;11.450;2022-11-20T08:28:08;5.30;91.60
38592;DHT22;24356;48.460;11.450;2022-11-20T08:30:34;5.30;91.70
38592;DHT22;24356;48.460;11.450;2022-11-20T08:33:03;5.30;91.50
38592;DHT22;24356;48.460;11.450;2022-11-20T08:35:33;5.30;91.40
38592;DHT22;24356;48.460;11.450;2022-11-20T08:37:59;5.30;91.50
38592;DHT22;24356;48.460;11.450;2022-11-20T08:40:24;5.40;91.50
38592;DHT22;24356;48.460;11.450;2022-11-20T08:42:50;5.40;91.40
38592;DHT22;24356;48.460;11.450;2022-11-20T08:45:17;5.40;91.50
38592;DHT22;24356;48.460;11.450;2022-11-20T08:47:43;5.40;91.40
38592;DHT22;24356;48.460;11.450;2022-11-20T08:50:10;5.40;91.40
38592;DHT22;24356;48.460;11.450;2022-11-20T08:52:36;5.40;91.60
38592;DHT22;24356;48.460;11.450;2022-11-20T08:55:02;5.50;91.60
38592;DHT22;24356;48.460;11.450;2022-11-20T08:57:28;5.50;91.20
38592;DHT22;24356;48.460;11.450;2022-11-20T08:59:53;5.50;91.30
38592;DHT22;24356;48.460;11.450;2022-11-20T09:02:20;5.50;91.10
38592;DHT22;24356;48.460;11.450;2022-11-20T09:04:46;5.50;91.10
38592;DHT22;24356;48.460;11.450;2022-11-20T09:07:11;5.50;91.30
38592;DHT22;24356;48.460;11.450;2022-11-20T09:09:37;5.50;91.20
38592;DHT22;24356;48.460;11.450;2022-11-20T09:12:03;5.60;91.20
38592;DHT22;24356;48.460;11.450;2022-11-20T09:14:28;5.60;91.30
38592;DHT22;24356;48.460;11.450;2022-11-20T09:16:56;5.60;91.10
38592;DHT22;24356;48.460;11.450;2022-11-20T09:19:23;5.60;91.10
38592;DHT22;24356;48.460;11.450;2022-11-20T09:21:49;5.70;91.00
38592;DHT22;24356;48.460;11.450;2022-11-20T09:24:14;5.70;90.90
38592;DHT22;24356;48.460;11.450;2022-11-20T09:26:40;5.70;90.90
38592;DHT22;24356;48.460;11.450;2022-11-20T09:29:06;5.70;90.90
38592;DHT22;24356;48.460;11.450;2022-11-20T09:31:32;5.80;90.80
38592;DHT22;24356;48.460;11.450;2022-11-20T09:33:57;5.80;90.60
38592;DHT22;24356;48.460;11.450;2022-11-20T09:36:23;5.80;90.70
38592;DHT22;24356;48.460;11.450;2022-11-20T09:38:49;5.80;90.70
38592;DHT22;24356;48.460;11.450;2022-11-20T09:47:01;5.90;90.50
38592;DHT22;24356;48.460;11.450;2022-11-20T09:52:51;5.90;90.30
38592;DHT22;24356;48.460;11.450;2022-11-20T09:55:21;5.90;90.20
38592;DHT22;24356;48.460;11.450;2022-11-20T09:57:48;5.90;90.20
38592;DHT22;24356;48.460;11.450;2022-11-20T10:00:16;5.90;90.60
38592;DHT22;24356;48.460;11.450;2022-11-20T10:08:31;6.00;90.50
38592;DHT22;24356;48.460;11.450;2022-11-20T10:14:01;6.10;90.40
38592;DHT22;24356;48.460;11.450;2022-11-20T10:24:56;6.20;90.10
38592;DHT22;24356;48.460;11.450;2022-11-20T10:30:24;6.30;90.00
38592;DHT22;24356;48.460;11.450;2022-11-20T10:33:06;6.30;89.60
38592;DHT22;24356;48.460;11.450;2022-11-20T10:35:51;6.30;89.50
38592;DHT22;24356;48.460;11.450;2022-11-20T10:38:25;6.40;89.60
38592;DHT22;24356;48.460;11.450;2022-11-20T10:41:00;6.40;89.30
38592;DHT22;24356;48.460;11.450;2022-11-20T10:43:46;6.40;89.40
38592;DHT22;24356;48.460;11.450;2022-11-20T10:46:18;6.40;89.40
38592;DHT22;24356;48.460;11.450;2022-11-20T10:48:45;6.40;89.40
38592;DHT22;24356;48.460;11.450;2022-11-20T10:51:30;6.40;89.50
38592;DHT22;24356;48.460;11.450;2022-11-20T10:54:06;6.40;89.20
38592;DHT22;24356;48.460;11.450;2022-11-20T10:56:47;6.40;89.30
38592;DHT22;24356;48.460;11.450;2022-11-20T10:59:54;6.40;89.20
38592;DHT22;24356;48.460;11.450;2022-11-20T11:02:31;6.40;89.20
38592;DHT22;24356;48.460;11.450;2022-11-20T11:07:53;6.40;89.30
38592;DHT22;24356;48.460;11.450;2022-11-20T11:13:26;6.50;89.10
38592;DHT22;24356;48.460;11.450;2022-11-20T11:15:52;6.60;89.20
38592;DHT22;24356;48.460;11.450;2022-11-20T11:18:28;6.60;89.10
38592;DHT22;24356;48.460;11.450;2022-11-20T11:20:56;6.60;89.00
38592;DHT22;24356;48.460;11.450;2022-11-20T11:23:38;6.70;88.70
38592;DHT22;24356;48.460;11.450;2022-11-20T11:26:07;6.80;88.60
38592;DHT22;24356;48.460;11.450;2022-11-20T11:28:34;6.80;88.50
38592;DHT22;24356;48.460;11.450;2022-11-20T11:31:00;6.90;88.70
38592;DHT22;24356;48.460;11.450;2022-11-20T11:33:31;6.90;88.70
38592;DHT22;24356;48.460;11.450;2022-11-20T11:36:01;6.90;88.50
38592;DHT22;24356;48.460;11.450;2022-11-20T11:38:40;6.90;88.70
38592;DHT22;24356;48.460;11.450;2022-11-20T11:41:17;6.90;88.70
38592;DHT22;24356;48.460;11.450;2022-11-20T11:44:00;6.90;88.70
38592;DHT22;24356;48.460;11.450;2022-11-20T11:46:54;7.00;88.30
38592;DHT22;24356;48.460;11.450;2022-11-20T11:49:22;7.00;88.50
38592;DHT22;24356;48.460;11.450;2022-11-20T11:54:55;7.00;88.20
38592;DHT22;24356;48.460;11.450;2022-11-20T11:57:36;7.00;88.20
38592;DHT22;24356;48.460;11.450;2022-11-20T12:00:18;7.00;87.90
38592;DHT22;24356;48.460;11.450;2022-11-20T12:05:24;6.90;87.90
38592;DHT22;24356;48.460;11.450;2022-11-20T12:08:04;6.90;87.90
38592;DHT22;24356;48.460;11.450;2022-11-20T12:15:44;6.90;87.90
38592;DHT22;24356;48.460;11.450;2022-11-20T12:18:18;6.90;87.90
38592;DHT22;24356;48.460;11.450;2022-11-20T12:23:35;6.90;87.90
38592;DHT22;24356;48.460;11.450;2022-11-20T12:26:18;6.90;87.90
38592;DHT22;24356;48.460;11.450;2022-11-20T12:28:59;6.90;87.90
38592;DHT22;24356;48.460;11.450;2022-11-20T12:31:48;6.90;88.00
38592;DHT22;24356;48.460;11.450;2022-11-20T12:37:30;6.90;88.00
38592;DHT22;24356;48.460;11.450;2022-11-20T12:40:28;6.90;88.00
38592;DHT22;24356;48.460;11.450;2022-11-20T12:43:21;6.90;87.90
38592;DHT22;24356;48.460;11.450;2022-11-20T12:46:24;6.90;88.10
38592;DHT22;24356;48.460;11.450;2022-11-20T12:51:40;6.90;88.10
38592;DHT22;24356;48.460;11.450;2022-11-20T13:07:22;6.80;88.00
38592;DHT22;24356;48.460;11.450;2022-11-20T13:09:50;6.80;88.10
38592;DHT22;24356;48.460;11.450;2022-11-20T13:12:43;6.70;88.20
38592;DHT22;24356;48.460;11.450;2022-11-20T13:18:01;6.70;88.10
38592;DHT22;24356;48.460;11.450;2022-11-20T13:20:29;6.70;88.40
38592;DHT22;24356;48.460;11.450;2022-11-20T13:22:56;6.70;88.40
38592;DHT22;24356;48.460;11.450;2022-11-20T13:25:35;6.60;88.50
38592;DHT22;24356;48.460;11.450;2022-11-20T13:28:04;6.60;88.70
38592;DHT22;24356;48.460;11.450;2022-11-20T13:30:31;6.60;88.70
38592;DHT22;24356;48.460;11.450;2022-11-20T13:33:20;6.60;88.70
38592;DHT22;24356;48.460;11.450;2022-11-20T13:35:56;6.60;88.70
38592;DHT22;24356;48.460;11.450;2022-11-20T13:38:22;6.60;88.70
38592;DHT22;24356;48.460;11.450;2022-11-20T13:40:55;6.50;88.90
38592;DHT22;24356;48.460;11.450;2022-11-20T13:43:42;6.50;89.00
38592;DHT22;24356;48.460;11.450;2022-11-20T13:46:10;6.50;88.90
38592;DHT22;24356;48.460;11.450;2022-11-20T13:48:41;6.50;89.00
38592;DHT22;24356;48.460;11.450;2022-11-20T13:57:12;6.50;88.90
38592;DHT22;24356;48.460;11.450;2022-11-20T14:02:18;6.50;89.00
38592;DHT22;24356;48.460;11.450;2022-11-20T14:04:51;6.50;89.00
38592;DHT22;24356;48.460;11.450;2022-11-20T14:07:20;6.50;89.10
38592;DHT22;24356;48.460;11.450;2022-11-20T14:09:54;6.50;89.10
38592;DHT22;24356;48.460;11.450;2022-11-20T14:12:23;6.50;89.10
38592;DHT22;24356;48.460;11.450;2022-11-20T14:14:53;6.50;89.00
38592;DHT22;24356;48.460;11.450;2022-11-20T14:17:37;6.40;89.40
38592;DHT22;24356;48.460;11.450;2022-11-20T14:20:12;6.40;89.40
38592;DHT22;24356;48.460;11.450;2022-11-20T14:22:48;6.40;89.60
38592;DHT22;24356;48.460;11.450;2022-11-20T14:27:43;6.40;89.60
38592;DHT22;24356;48.460;11.450;2022-11-20T14:30:17;6.30;89.80
38592;DHT22;24356;48.460;11.450;2022-11-20T14:32:44;6.30;89.80
38592;DHT22;24356;48.460;11.450;2022-11-20T14:35:17;6.30;90.30
38592;DHT22;24356;48.460;11.450;2022-11-20T14:37:46;6.30;90.10
38592;DHT22;24356;48.460;11.450;2022-11-20T14:40:29;6.20;90.20
38592;DHT22;24356;48.460;11.450;2022-11-20T14:42:56;6.20;90.20
38592;DHT22;24356;48.460;11.450;2022-11-20T14:45:23;6.10;90.40
38592;DHT22;24356;48.460;11.450;2022-11-20T14:47:49;6.10;90.70
38592;DHT22;24356;48.460;11.450;2022-11-20T14:50:23;6.10;90.60
38592;DHT22;24356;48.460;11.450;2022-11-20T14:52:51;6.10;90.70
38592;DHT22;24356;48.460;11.450;2022-11-20T14:55:37;6.00;90.80
38592;DHT22;24356;48.460;11.450;2022-11-20T14:58:05;6.00;90.80
38592;DHT22;24356;48.460;11.450;2022-11-20T15:00:32;6.10;90.70
38592;DHT22;24356;48.460;11.450;2022-11-20T15:02:58;6.00;90.70
38592;DHT22;24356;48.460;11.450;2022-11-20T15:05:48;6.10;90.50
38592;DHT22;24356;48.460;11.450;2022-11-20T15:08:14;6.00;90.70
38592;DHT22;24356;48.460;11.450;2022-11-20T15:10:46;6.00;90.80
38592;DHT22;24356;48.460;11.450;2022-11-20T15:13:32;5.90;90.70
38592;DHT22;24356;48.460;11.450;2022-11-20T15:16:00;5.90;90.80
38592;DHT22;24356;48.460;11.450;2022-11-20T15:18:46;5.90;90.80
38592;DHT22;24356;48.460;11.450;2022-11-20T15:21:14;5.80;90.70
38592;DHT22;24356;48.460;11.450;2022-11-20T15:23:41;5.80;90.80
38592;DHT22;24356;48.460;11.450;2022-11-20T15:26:07;5.80;90.80
38592;DHT22;24356;48.460;11.450;2022-11-20T15:28:39;5.80;90.80
38592;DHT22;24356;48.460;11.450;2022-11-20T15:31:11;5.70;90.70
38592;DHT22;24356;48.460;11.450;2022-11-20T15:33:37;5.70;90.80
38592;DHT22;24356;48.460;11.450;2022-11-20T15:36:03;5.60;91.00
38592;DHT22;24356;48.460;11.450;2022-11-20T15:38:29;5.60;90.90
38592;DHT22;24356;48.460;11.450;2022-11-20T15:40:55;5.60;91.10
38592;DHT22;24356;48.460;11.450;2022-11-20T15:43:21;5.60;90.90
38592;DHT22;24356;48.460;11.450;2022-11-20T15:45:55;5.60;91.10
38592;DHT22;24356;48.460;11.450;2022-11-20T15:48:28;5.50;91.10
38592;DHT22;24356;48.460;11.450;2022-11-20T15:53:34;5.50;91.20
38592;DHT22;24356;48.460;11.450;2022-11-20T15:56:01;5.40;91.50
38592;DHT22;24356;48.460;11.450;2022-11-20T15:58:26;5.40;91.50
38592;DHT22;24356;48.460;11.450;2022-11-20T16:00:52;5.30;91.50
38592;DHT22;24356;48.460;11.450;2022-11-20T16:03:18;5.30;91.40
38592;DHT22;24356;48.460;11.450;2022-11-20T16:05:44;5.20;91.60
38592;DHT22;24356;48.460;11.450;2022-11-20T16:08:10;5.20;91.60
38592;DHT22;24356;48.460;11.450;2022-11-20T16:10:35;5.20;91.80
38592;DHT22;24356;48.460;11.450;2022-11-20T16:13:02;5.20;91.70
38592;DHT22;24356;48.460;11.450;2022-11-20T16:15:52;5.20;91.80
38592;DHT22;24356;48.460;11.450;2022-11-20T16:18:21;5.20;91.70
38592;DHT22;24356;48.460;11.450;2022-11-20T16:20:50;5.20;91.80
38592;DHT22;24356;48.460;11.450;2022-11-20T16:23:16;5.20;91.90
38592;DHT22;24356;48.460;11.450;2022-11-20T16:25:42;5.20;91.70
38592;DHT22;24356;48.460;11.450;2022-11-20T16:28:08;5.20;91.70
38592;DHT22;24356;48.460;11.450;2022-11-20T16:30:35;5.10;91.90
38592;DHT22;24356;48.460;11.450;2022-11-20T16:33:03;5.10;91.80
38592;DHT22;24356;48.460;11.450;2022-11-20T16:35:29;5.10;92.00
38592;DHT22;24356;48.460;11.450;2022-11-20T16:37:56;5.10;92.00
38592;DHT22;24356;48.460;11.450;2022-11-20T16:40:22;5.10;91.90
38592;DHT22;24356;48.460;11.450;2022-11-20T16:42:48;5.10;91.90
38592;DHT22;24356;48.460;11.450;2022-11-20T16:45:14;5.10;91.90
38592;DHT22;24356;48.460;11.450;2022-11-20T16:47:40;5.10;92.00
38592;DHT22;24356;48.460;11.450;2022-11-20T16:50:06;5.10;91.90
38592;DHT22;24356;48.460;11.450;2022-11-20T16:52:32;5.00;92.00
38592;DHT22;24356;48.460;11.450;2022-11-20T16:54:58;5.00;92.00
38592;DHT22;24356;48.460;11.450;2022-11-20T16:57:24;5.00;92.00
38592;DHT22;24356;48.460;11.450;2022-11-20T16:59:52;5.00;92.00
38592;DHT22;24356;48.460;11.450;2022-11-20T17:02:17;4.90;91.90
38592;DHT22;24356;48.460;11.450;2022-11-20T17:04:43;4.90;92.10
38592;DHT22;24356;48.460;11.450;2022-11-20T17:07:08;4.90;91.90
38592;DHT22;24356;48.460;11.450;2022-11-20T17:09:34;4.90;92.00